Terminal Aerodrome Forecast
Issued by NWS

Current Version | Previous Version | Text Only | Print | Product List | Glossary On
Versions: 1 2 3 4 5 6 7 8 9 10 11 12 13 14 15 16 17 18 19
710
FTUS43 KGRB 231134
TAFMTW
TAF
KMTW 231134Z 2312/2412 30007KT P6SM SCT015
     FM231500 33010G17KT P6SM SCT035
     FM232300 01006KT P6SM SCT120
     FM240600 35005KT P6SM SCT035 BKN100=

USA.gov is the U.S. government's official web portal to all federal, state and local government web resources and services.